Time;durP1;ratioP1;P1;durP2;ratioP2;P2;SDS_P1;SDS_P2;PMS_P1;PMS_P2;Temp;Humidity;BMP_temperature;BMP_pressure;BME280_temperature;BME280_humidity;BME280_pressure;Samples;Min_cycle;Max_cycle;Signal;HPM_P1;HPM_P2
2022/07/05 00:01:58;;;;;;;;;;;;;;;24.34;81.82;97049.30;625565;227;62799;-69
2022/07/05 00:04:26;;;;;;;;;;;;;;;24.34;81.81;97044.73;625597;227;63106;-69
2022/07/05 00:09:39;;;;;;;;;;;;;;;24.35;81.79;97046.31;625640;227;65178;-69
2022/07/05 00:12:07;;;;;;;;;;;;;;;24.34;81.78;97044.73;625534;227;65005;-69
2022/07/05 00:14:34;;;;;;;;;;;;;;;24.33;81.74;97032.37;625643;227;62730;-69
2022/07/05 00:17:03;;;;;;;;;;;;;;;24.33;81.80;97037.74;625579;227;62717;-69
2022/07/05 00:19:31;;;;;;;;;;;;;;;24.33;81.75;97031.58;625590;227;63572;-69
2022/07/05 00:21:58;;;;;;;;;;;;;;;24.33;81.81;97032.37;625608;227;63144;-69
2022/07/05 00:24:26;;;;;;;;;;;;;;;24.33;81.83;97031.58;625568;227;62817;-69
2022/07/05 00:26:54;;;;;;;;;;;;;;;24.33;81.87;97034.27;625602;227;63255;-69
2022/07/05 00:29:21;;;;;;;;;;;;;;;24.32;81.90;97033.47;625619;227;63827;-69
2022/07/05 00:31:49;;;;;;;;;;;;;;;24.33;81.83;97031.58;625636;227;64906;-69
2022/07/05 00:34:17;;;;;;;;;;;;;;;24.33;81.80;97027.00;625645;227;66148;-69
2022/07/05 00:36:44;;;;;;;;;;;;;;;24.34;81.82;97030.50;625625;227;64765;-69
2022/07/05 00:39:12;;;;;;;;;;;;;;;24.33;81.94;97023.52;625608;227;63006;-69
2022/07/05 00:41:39;;;;;;;;;;;;;;;24.32;81.84;97016.56;625612;227;62973;-69
2022/07/05 00:44:08;;;;;;;;;;;;;;;24.34;82.07;97017.08;625622;227;62776;-69
2022/07/05 00:46:37;;;;;;;;;;;;;;;24.32;82.05;97014.67;625625;227;65060;-69
2022/07/05 00:49:05;;;;;;;;;;;;;;;24.33;82.20;97018.15;625615;227;65076;-69
2022/07/05 00:51:33;;;;;;;;;;;;;;;24.32;82.04;97013.87;625629;227;62709;-69
2022/07/05 00:54:01;;;;;;;;;;;;;;;24.33;81.99;97020.83;625637;227;63737;-69
2022/07/05 00:56:29;;;;;;;;;;;;;;;24.32;82.02;97020.05;625607;227;62845;-70
2022/07/05 00:58:56;;;;;;;;;;;;;;;24.32;81.95;97006.61;625639;227;62693;-70
2022/07/05 01:01:26;;;;;;;;;;;;;;;24.33;82.05;97007.41;625577;227;65783;-70
2022/07/05 01:03:53;;;;;;;;;;;;;;;24.32;81.95;97003.92;625610;227;65344;-70
2022/07/05 01:06:21;;;;;;;;;;;;;;;24.34;81.92;97011.70;625605;227;63220;-70
2022/07/05 01:08:49;;;;;;;;;;;;;;;24.33;81.95;97004.72;625594;227;62889;-70
2022/07/05 01:11:17;;;;;;;;;;;;;;;24.32;81.82;96997.77;625334;227;65479;-70
2022/07/05 01:13:44;;;;;;;;;;;;;;;24.33;82.07;96999.34;623461;227;65042;-70
2022/07/05 01:16:13;;;;;;;;;;;;;;;24.32;82.00;96989.70;623420;227;64933;-70
2022/07/05 01:18:41;;;;;;;;;;;;;;;24.32;82.16;96992.39;623494;227;65452;-70
2022/07/05 01:21:10;;;;;;;;;;;;;;;24.32;82.17;96989.70;623412;227;63152;-70
2022/07/05 01:23:38;;;;;;;;;;;;;;;24.32;82.03;96992.39;623406;227;62757;-70
2022/07/05 01:26:06;;;;;;;;;;;;;;;24.33;82.04;96993.98;623444;227;63625;-70
2022/07/05 01:28:34;;;;;;;;;;;;;;;24.32;81.94;96993.19;623435;227;62893;-70
2022/07/05 01:31:02;;;;;;;;;;;;;;;24.32;81.89;96989.70;623436;227;64858;-70
2022/07/05 01:33:32;;;;;;;;;;;;;;;24.32;82.21;96993.19;623456;227;65496;-70
2022/07/05 01:36:00;;;;;;;;;;;;;;;24.33;81.88;96996.66;623447;227;63967;-70
2022/07/05 01:38:27;;;;;;;;;;;;;;;24.32;81.93;96997.77;623427;227;62887;-70
2022/07/05 01:40:55;;;;;;;;;;;;;;;24.31;82.02;96996.97;623392;227;65464;-70
2022/07/05 01:43:24;;;;;;;;;;;;;;;24.33;82.11;97004.72;623441;227;62887;-70
2022/07/05 01:45:52;;;;;;;;;;;;;;;24.32;82.21;97003.13;623469;227;65097;-70
2022/07/05 01:48:20;;;;;;;;;;;;;;;24.32;82.19;96997.77;623439;227;65468;-70
2022/07/05 01:50:48;;;;;;;;;;;;;;;24.31;82.17;97002.34;623463;227;62953;-70
2022/07/05 01:53:18;;;;;;;;;;;;;;;24.32;82.10;97011.98;623417;227;62779;-70
2022/07/05 01:55:46;;;;;;;;;;;;;;;24.32;82.13;97011.98;623437;227;65485;-70
2022/07/05 01:58:15;;;;;;;;;;;;;;;24.33;82.24;97013.56;623488;227;62519;-70
2022/07/05 02:00:43;;;;;;;;;;;;;;;24.32;82.16;97005.82;623432;227;62965;-70
2022/07/05 02:03:12;;;;;;;;;;;;;;;24.32;82.29;97014.67;623448;227;65556;-70
2022/07/05 02:05:41;;;;;;;;;;;;;;;24.32;82.39;97014.67;623479;227;65221;-70
2022/07/05 02:08:11;;;;;;;;;;;;;;;24.32;82.29;97013.87;623441;227;64943;-70
2022/07/05 02:10:39;;;;;;;;;;;;;;;24.32;82.56;97013.87;623483;227;65550;-71
2022/07/05 02:13:09;;;;;;;;;;;;;;;24.31;82.35;97012.30;623457;227;63001;-70
2022/07/05 02:15:38;;;;;;;;;;;;;;;24.31;82.33;97014.98;623447;227;65004;-69
2022/07/05 02:18:07;;;;;;;;;;;;;;;24.31;82.19;97009.61;618297;227;67219;-70
2022/07/05 02:20:36;;;;;;;;;;;;;;;24.32;81.93;97013.87;623446;227;65783;-69
2022/07/05 02:23:03;;;;;;;;;;;;;;;24.31;81.75;97017.66;623420;227;65503;-70
2022/07/05 02:25:31;;;;;;;;;;;;;;;24.32;81.76;97019.25;623485;227;62707;-71
2022/07/05 02:28:01;;;;;;;;;;;;;;;24.31;81.79;97018.45;623525;227;44069;-71
2022/07/05 02:30:29;;;;;;;;;;;;;;;24.32;81.69;97021.94;623462;227;65024;-71
2022/07/05 02:32:59;;;;;;;;;;;;;;;24.31;81.75;97017.66;623478;227;45174;-70
2022/07/05 02:35:27;;;;;;;;;;;;;;;24.31;81.62;97012.30;623495;227;65779;-71
2022/07/05 02:37:56;;;;;;;;;;;;;;;24.30;81.67;97011.47;618415;227;66611;-71
2022/07/05 02:40:24;;;;;;;;;;;;;;;24.31;81.61;97015.77;623473;227;65017;-70
2022/07/05 02:42:52;;;;;;;;;;;;;;;24.31;81.71;97014.98;623473;227;66171;-71
2022/07/05 02:45:19;;;;;;;;;;;;;;;24.31;81.65;97018.45;623438;227;65895;-70
2022/07/05 02:47:49;;;;;;;;;;;;;;;24.31;81.68;97028.41;623357;227;43032;-70
2022/07/05 02:50:17;;;;;;;;;;;;;;;24.31;81.76;97023.03;623471;227;65715;-71
2022/07/05 02:52:46;;;;;;;;;;;;;;;24.31;81.64;97023.03;623420;227;42118;-71
2022/07/05 02:55:14;;;;;;;;;;;;;;;24.31;81.68;97017.66;623466;227;62700;-71
2022/07/05 02:57:41;;;;;;;;;;;;;;;24.32;81.75;97024.62;623455;227;65032;-71
2022/07/05 03:00:11;;;;;;;;;;;;;;;24.31;81.74;97021.14;623461;227;63127;-71
2022/07/05 03:02:40;;;;;;;;;;;;;;;24.31;81.66;97023.03;623509;227;43803;-70
2022/07/05 03:05:08;;;;;;;;;;;;;;;24.31;81.75;97028.41;623485;227;63831;-71
2022/07/05 03:07:35;;;;;;;;;;;;;;;24.31;81.71;97023.03;623443;227;64914;-71
2022/07/05 03:10:04;;;;;;;;;;;;;;;24.30;81.81;97027.59;623438;227;66023;-71
2022/07/05 03:12:32;;;;;;;;;;;;;;;24.31;81.73;97025.72;624765;227;65720;-70
2022/07/05 03:15:00;;;;;;;;;;;;;;;24.31;81.70;97023.03;625626;227;64936;-71
2022/07/05 03:17:27;;;;;;;;;;;;;;;24.30;81.83;97022.21;625644;227;65488;-71
2022/07/05 03:19:55;;;;;;;;;;;;;;;24.31;81.83;97028.41;625579;227;65024;-70
2022/07/05 03:22:23;;;;;;;;;;;;;;;24.31;81.80;97029.20;625599;227;62255;-70
2022/07/05 03:24:51;;;;;;;;;;;;;;;24.30;81.83;97029.48;625619;227;63320;-70
2022/07/05 03:27:18;;;;;;;;;;;;;;;24.30;81.76;97024.11;625658;227;65475;-70
2022/07/05 03:29:47;;;;;;;;;;;;;;;24.29;81.75;97020.63;625591;227;43202;-70
2022/07/05 03:32:15;;;;;;;;;;;;;;;24.30;81.78;97021.42;625629;227;63121;-71
2022/07/05 03:34:43;;;;;;;;;;;;;;;24.30;81.76;97016.84;625583;227;65664;-71
2022/07/05 03:37:14;;;;;;;;;;;;;;;24.30;81.94;97016.84;625620;227;62379;-71
2022/07/05 03:39:42;;;;;;;;;;;;;;;24.30;81.74;97021.42;625559;227;65926;-71
2022/07/05 03:42:10;;;;;;;;;;;;;;;24.30;81.78;97022.21;625628;227;65763;-70
2022/07/05 03:44:39;;;;;;;;;;;;;;;24.30;81.79;97021.42;625578;227;65535;-71
2022/07/05 03:47:06;;;;;;;;;;;;;;;24.30;81.77;97021.42;625582;227;65642;-70
2022/07/05 03:49:34;;;;;;;;;;;;;;;24.30;81.76;97013.36;625625;227;62439;-70
2022/07/05 03:52:02;;;;;;;;;;;;;;;24.30;81.71;97010.68;618835;227;66710;-71
2022/07/05 03:54:29;;;;;;;;;;;;;;;24.30;81.72;97010.68;625639;227;65033;-70
2022/07/05 03:56:57;;;;;;;;;;;;;;;24.30;81.72;97013.36;625621;227;62820;-70
2022/07/05 03:59:25;;;;;;;;;;;;;;;24.30;81.67;97018.73;625561;227;62397;-71
2022/07/05 04:01:52;;;;;;;;;;;;;;;24.30;81.79;97010.68;625540;227;66093;-71
2022/07/05 04:04:20;;;;;;;;;;;;;;;24.30;81.82;97016.05;625412;227;65722;-67
2022/07/05 04:06:50;;;;;;;;;;;;;;;24.31;81.79;97012.30;625550;227;64868;-71
2022/07/05 04:09:17;;;;;;;;;;;;;;;24.31;81.54;97009.61;625614;227;65971;-71
2022/07/05 04:11:45;;;;;;;;;;;;;;;24.31;83.39;97006.92;625498;227;65033;-70
2022/07/05 04:14:13;;;;;;;;;;;;;;;24.30;83.39;97005.30;625545;227;62338;-71
2022/07/05 04:16:41;;;;;;;;;;;;;;;24.28;83.43;97008.30;625616;227;66058;-71
2022/07/05 04:19:09;;;;;;;;;;;;;;;24.28;82.66;97002.11;625610;227;62637;-71
2022/07/05 04:21:37;;;;;;;;;;;;;;;24.28;82.88;97002.11;625645;227;65392;-71
2022/07/05 04:24:05;;;;;;;;;;;;;;;24.29;82.74;96998.35;625586;227;65498;-71
2022/07/05 04:26:33;;;;;;;;;;;;;;;24.28;82.32;97002.93;625564;227;65018;-71
2022/07/05 04:29:00;;;;;;;;;;;;;;;24.28;82.18;97007.48;625603;227;62402;-71
2022/07/05 04:31:29;;;;;;;;;;;;;;;24.28;82.02;97012.84;625635;227;42976;-71
2022/07/05 04:33:57;;;;;;;;;;;;;;;24.28;82.10;97016.36;625653;227;65051;-71
2022/07/05 04:36:26;;;;;;;;;;;;;;;24.28;82.19;97012.84;625612;227;43224;-71
2022/07/05 04:38:55;;;;;;;;;;;;;;;24.28;82.22;97012.84;625594;227;63496;-71
2022/07/05 04:41:23;;;;;;;;;;;;;;;24.29;82.33;97012.57;625640;227;64920;-71
2022/07/05 04:43:50;;;;;;;;;;;;;;;24.28;82.49;97010.98;625613;227;64947;-71
2022/07/05 04:46:18;;;;;;;;;;;;;;;24.28;82.57;97007.48;625672;227;65034;-71
2022/07/05 04:48:47;;;;;;;;;;;;;;;24.28;82.51;97007.48;625569;227;65661;-71
2022/07/05 04:51:15;;;;;;;;;;;;;;;24.28;82.53;97007.48;625637;227;64907;-71
2022/07/05 04:53:43;;;;;;;;;;;;;;;24.28;82.49;97007.48;625626;227;62926;-71
2022/07/05 04:56:10;;;;;;;;;;;;;;;24.29;82.26;97009.09;625647;227;63906;-71
2022/07/05 04:58:38;;;;;;;;;;;;;;;24.28;82.31;97002.11;625660;227;62895;-71
2022/07/05 05:01:05;;;;;;;;;;;;;;;24.29;81.88;97003.72;625681;227;63799;-71
2022/07/05 05:03:34;;;;;;;;;;;;;;;24.28;81.80;97007.48;625605;227;64852;-71
2022/07/05 05:06:03;;;;;;;;;;;;;;;24.28;81.72;97018.22;625597;227;64851;-71
2022/07/05 05:08:30;;;;;;;;;;;;;;;24.28;81.57;97013.67;625628;227;64992;-71
2022/07/05 05:10:58;;;;;;;;;;;;;;;24.28;81.47;97015.53;625581;227;65062;-71
2022/07/05 05:13:25;;;;;;;;;;;;;;;24.28;81.55;97016.36;623449;227;62760;-71
2022/07/05 05:15:53;;;;;;;;;;;;;;;24.28;81.67;97019.05;623450;227;63255;-71
2022/07/05 05:18:24;;;;;;;;;;;;;;;24.27;81.75;97017.43;623429;227;65051;-71
2022/07/05 05:20:50;;;;;;;;;;;;;;;24.28;81.67;97027.10;623380;227;64924;-71
2022/07/05 05:23:17;;;;;;;;;;;;;;;24.27;81.86;97028.17;623430;227;65572;-71
2022/07/05 05:25:45;;;;;;;;;;;;;;;24.27;81.87;97022.80;623485;227;65095;-71
2022/07/05 05:28:12;;;;;;;;;;;;;;;24.28;81.97;97028.97;623454;227;66116;-71
2022/07/05 05:30:39;;;;;;;;;;;;;;;24.28;82.28;97028.97;623488;227;65483;-71
2022/07/05 05:33:07;;;;;;;;;;;;;;;24.28;82.52;97026.28;623442;227;65307;-71
2022/07/05 05:35:34;;;;;;;;;;;;;;;24.27;82.26;97028.17;623443;227;64848;-71
2022/07/05 05:38:02;;;;;;;;;;;;;;;24.27;82.25;97030.06;623507;227;65250;-71
2022/07/05 05:40:29;;;;;;;;;;;;;;;24.26;82.29;97018.53;623377;227;65025;-71
2022/07/05 05:42:57;;;;;;;;;;;;;;;24.28;82.32;97026.28;623463;227;65107;-71
2022/07/05 05:45:25;;;;;;;;;;;;;;;24.26;82.15;97023.90;623441;227;65461;-71
2022/07/05 05:47:54;;;;;;;;;;;;;;;24.27;82.06;97022.01;623305;227;62987;-71
2022/07/05 05:50:22;;;;;;;;;;;;;;;24.27;82.03;97022.80;623263;227;66020;-70
2022/07/05 05:52:49;;;;;;;;;;;;;;;24.27;81.68;97027.38;622770;227;65715;-69
2022/07/05 05:55:17;;;;;;;;;;;;;;;24.28;81.00;97028.97;623451;227;64983;-71
2022/07/05 05:57:45;;;;;;;;;;;;;;;24.27;81.54;97022.80;623406;227;64828;-71
2022/07/05 06:00:12;;;;;;;;;;;;;;;24.28;83.02;97020.91;623287;227;65343;-71
2022/07/05 06:02:40;;;;;;;;;;;;;;;24.28;82.67;97031.65;623238;227;62907;-70
2022/07/05 06:05:08;;;;;;;;;;;;;;;24.27;82.76;97030.86;623444;227;62909;-73
2022/07/05 06:07:54;;;;;;;;;;;;;;;24.27;82.84;97028.17;623384;227;63245;-68
2022/07/05 06:10:27;;;;;;;;;;;;;;;24.27;82.49;97030.86;623350;227;62921;-69
2022/07/05 06:12:55;;;;;;;;;;;;;;;24.26;81.95;97033.85;624310;227;64876;-69
2022/07/05 06:15:23;;;;;;;;;;;;;;;24.26;82.28;97034.64;624524;227;65440;-70
2022/07/05 06:17:51;;;;;;;;;;;;;;;24.27;80.25;97030.06;624339;227;64883;-63
2022/07/05 06:20:20;;;;;;;;;;;;;;;24.28;80.43;97034.33;624653;227;65024;-64
2022/07/05 06:22:48;;;;;;;;;;;;;;;24.32;78.54;97030.78;624356;227;65061;-70
2022/07/05 06:25:16;;;;;;;;;;;;;;;24.33;79.60;97029.68;624431;227;65172;-71
2022/07/05 06:27:44;;;;;;;;;;;;;;;24.34;80.27;97033.98;624206;224;64889;-71
2022/07/05 06:30:16;;;;;;;;;;;;;;;24.33;82.01;97031.58;624221;227;65962;-71
2022/07/05 06:32:44;;;;;;;;;;;;;;;24.31;83.17;97029.20;624477;227;65212;-70
2022/07/05 06:35:11;;;;;;;;;;;;;;;24.30;83.52;97026.79;624436;227;65231;-65
2022/07/05 06:37:45;;;;;;;;;;;;;;;24.30;82.89;97024.11;624421;227;65497;-64
2022/07/05 06:40:14;;;;;;;;;;;;;;;24.30;82.66;97026.79;624449;227;65213;-63
2022/07/05 06:42:41;;;;;;;;;;;;;;;24.30;82.86;97024.90;623396;227;65098;-69
2022/07/05 06:45:10;;;;;;;;;;;;;;;24.31;82.66;97017.66;623293;227;66118;-70
2022/07/05 06:47:37;;;;;;;;;;;;;;;24.30;82.45;97021.42;623399;227;65301;-70
2022/07/05 06:50:05;;;;;;;;;;;;;;;24.32;81.87;97024.62;623328;227;64934;-69
2022/07/05 06:52:33;;;;;;;;;;;;;;;24.34;80.78;97017.87;623205;227;65398;-65
2022/07/05 06:55:01;;;;;;;;;;;;;;;24.33;81.53;97020.83;623416;227;63147;-71
2022/07/05 06:57:29;;;;;;;;;;;;;;;24.33;82.20;97010.09;622998;227;62892;-71
2022/07/05 06:59:56;;;;;;;;;;;;;;;24.33;82.66;97013.56;623330;227;63023;-71
2022/07/05 07:02:24;;;;;;;;;;;;;;;24.32;82.10;97009.30;623421;227;65048;-69
2022/07/05 07:04:51;;;;;;;;;;;;;;;24.33;82.17;97008.20;622953;227;62805;-70
2022/07/05 07:10:04;;;;;;;;;;;;;;;24.34;82.11;97011.70;623393;227;65515;-70
2022/07/05 07:12:33;;;;;;;;;;;;;;;24.33;81.73;97005.52;624149;227;64812;-70
2022/07/05 07:15:02;;;;;;;;;;;;;;;24.34;81.81;97003.65;625150;227;65464;-70
2022/07/05 07:17:29;;;;;;;;;;;;;;;24.34;81.67;97006.33;625362;227;63253;-72
2022/07/05 07:19:57;;;;;;;;;;;;;;;24.35;81.63;97002.55;625371;227;62710;-69
2022/07/05 07:22:24;;;;;;;;;;;;;;;24.35;81.61;97006.02;625548;226;62984;-67
2022/07/05 07:24:52;;;;;;;;;;;;;;;24.36;81.75;96998.76;625396;227;62943;-67
2022/07/05 07:27:19;;;;;;;;;;;;;;;24.36;81.67;97004.13;625614;227;63064;-66
2022/07/05 07:29:47;;;;;;;;;;;;;;;24.36;81.96;97004.13;625536;227;63200;-66
2022/07/05 07:32:14;;;;;;;;;;;;;;;24.36;82.12;97004.13;625500;227;63068;-67
2022/07/05 07:34:42;;;;;;;;;;;;;;;24.36;81.97;97010.33;625296;227;64795;-66
2022/07/05 07:37:13;;;;;;;;;;;;;;;24.37;82.12;97005.74;625573;227;65120;-70
2022/07/05 07:39:38;;;;;;;;;;;;;;;24.39;82.66;97003.57;625440;227;65259;-71
2022/07/05 07:42:06;;;;;;;;;;;;;;;24.40;81.15;97007.84;625131;226;62702;-71
2022/07/05 07:44:34;;;;;;;;;;;;;;;24.39;81.19;97006.26;625450;227;65990;-71
2022/07/05 07:47:01;;;;;;;;;;;;;;;24.38;81.71;97007.33;625499;227;65038;-71
2022/07/05 07:49:29;;;;;;;;;;;;;;;24.38;81.93;97012.70;625576;227;65171;-72
2022/07/05 07:51:56;;;;;;;;;;;;;;;24.38;81.96;97012.70;625555;227;65426;-71
2022/07/05 07:54:24;;;;;;;;;;;;;;;24.41;81.03;97005.95;625370;227;62960;-71
2022/07/05 07:56:51;;;;;;;;;;;;;;;24.43;80.17;97014.52;625055;226;63628;-71
2022/07/05 07:59:19;;;;;;;;;;;;;;;24.42;81.06;97015.59;625531;227;65561;-71
2022/07/05 08:01:47;;;;;;;;;;;;;;;24.41;81.84;97016.69;625276;227;65028;-71
2022/07/05 08:04:15;;;;;;;;;;;;;;;24.40;82.02;97015.90;625457;227;64861;-70
2022/07/05 08:06:43;;;;;;;;;;;;;;;24.39;82.06;97014.31;625259;226;65501;-70
2022/07/05 08:09:12;;;;;;;;;;;;;;;24.39;81.92;97014.31;625129;227;66178;-71
2022/07/05 08:11:40;;;;;;;;;;;;;;;24.38;81.86;97018.86;624767;227;63770;-70
2022/07/05 08:14:07;;;;;;;;;;;;;;;24.39;81.90;97008.94;625557;227;65465;-70
2022/07/05 08:16:35;;;;;;;;;;;;;;;24.38;81.76;97013.48;625519;227;65011;-71
2022/07/05 08:21:49;;;;;;;;;;;;;;;24.39;81.59;97008.94;625495;227;65470;-72
2022/07/05 08:24:17;;;;;;;;;;;;;;;24.39;81.55;97008.94;625558;226;62668;-70
2022/07/05 08:26:44;;;;;;;;;;;;;;;24.40;81.64;97009.73;625375;227;66062;-70
2022/07/05 08:29:13;;;;;;;;;;;;;;;24.38;81.58;97010.02;625435;227;64095;-70
2022/07/05 08:31:42;;;;;;;;;;;;;;;24.40;81.54;97010.53;625565;227;65435;-72
2022/07/05 08:34:09;;;;;;;;;;;;;;;24.39;81.61;97006.26;625557;227;64858;-73
2022/07/05 08:36:37;;;;;;;;;;;;;;;24.39;81.63;97008.94;625442;227;65544;-71
2022/07/05 08:39:05;;;;;;;;;;;;;;;24.40;81.72;97007.05;625533;227;65101;-70
2022/07/05 08:41:36;;;;;;;;;;;;;;;24.40;81.63;97007.84;625283;227;42452;-70
2022/07/05 08:44:04;;;;;;;;;;;;;;;24.40;81.65;97005.16;625521;227;65448;-71
2022/07/05 08:46:32;;;;;;;;;;;;;;;24.39;81.65;96992.83;625564;227;64905;-70
2022/07/05 08:49:01;;;;;;;;;;;;;;;24.40;81.79;97001.67;625537;225;64410;-70
2022/07/05 08:51:29;;;;;;;;;;;;;;;24.40;81.80;96999.78;625534;227;64902;-70
2022/07/05 08:53:56;;;;;;;;;;;;;;;24.41;81.89;96995.20;625547;227;64801;-70
2022/07/05 08:56:27;;;;;;;;;;;;;;;24.41;81.85;97000.58;625541;227;66018;-71
2022/07/05 08:58:54;;;;;;;;;;;;;;;24.41;81.72;96998.68;625548;227;65493;-70
2022/07/05 09:01:21;;;;;;;;;;;;;;;24.41;81.70;97001.37;625535;227;64767;-71
2022/07/05 09:03:51;;;;;;;;;;;;;;;24.41;81.78;97001.37;625540;226;64857;-71
2022/07/05 09:06:22;;;;;;;;;;;;;;;24.41;81.87;96990.63;625470;227;62715;-67
2022/07/05 09:08:51;;;;;;;;;;;;;;;24.40;81.82;96991.72;625503;227;63553;-71
2022/07/05 09:11:20;;;;;;;;;;;;;;;24.41;81.68;96990.63;625504;227;65201;-71
2022/07/05 09:13:51;;;;;;;;;;;;;;;24.40;81.84;96989.04;625332;227;63031;-71
2022/07/05 09:16:19;;;;;;;;;;;;;;;24.41;81.97;96992.52;625493;227;62946;-71
2022/07/05 09:18:48;;;;;;;;;;;;;;;24.41;81.96;96987.94;625759;225;62845;-70
2022/07/05 09:21:20;;;;;;;;;;;;;;;24.41;81.91;96984.45;625645;225;65388;-69
2022/07/05 09:23:57;;;;;;;;;;;;;;;24.42;81.84;96986.05;625519;227;65389;-70
2022/07/05 09:26:44;;;;;;;;;;;;;;;24.41;81.63;96979.88;622226;227;62786;-70
2022/07/05 09:29:13;;;;;;;;;;;;;;;24.41;81.71;96981.77;625594;227;65521;-70
2022/07/05 09:31:41;;;;;;;;;;;;;;;24.41;81.55;96977.19;625548;227;65354;-70
2022/07/05 09:34:10;;;;;;;;;;;;;;;24.41;81.75;96979.88;625472;227;65154;-70
2022/07/05 09:36:48;;;;;;;;;;;;;;;24.40;81.83;96969.45;625461;227;62961;-69
2022/07/05 09:39:17;;;;;;;;;;;;;;;24.41;81.71;96971.82;625559;227;64879;-71
2022/07/05 09:41:46;;;;;;;;;;;;;;;24.41;81.48;96968.34;625589;227;44990;-70
2022/07/05 09:44:15;;;;;;;;;;;;;;;24.41;81.68;96968.34;625497;227;65456;-70
2022/07/05 09:46:43;;;;;;;;;;;;;;;24.42;81.65;96964.55;625058;227;65604;-71
2022/07/05 09:49:15;;;;;;;;;;;;;;;24.41;81.48;96966.45;625481;227;65422;-71
2022/07/05 09:51:49;;;;;;;;;;;;;;;24.41;81.54;96958.39;625454;227;65553;-71
2022/07/05 09:54:16;;;;;;;;;;;;;;;24.42;81.67;96962.69;625501;227;65046;-69
2022/07/05 09:56:45;;;;;;;;;;;;;;;24.45;79.03;96955.96;625478;227;65132;-70
2022/07/05 09:59:14;;;;;;;;;;;;;;;24.47;80.62;96956.44;625542;227;65744;-71
2022/07/05 10:01:41;;;;;;;;;;;;;;;24.45;81.16;96955.96;625484;227;63157;-71
2022/07/05 10:04:09;;;;;;;;;;;;;;;24.44;81.41;96957.03;625569;227;64864;-71
2022/07/05 10:06:37;;;;;;;;;;;;;;;24.44;81.75;96951.66;625525;227;64916;-70
2022/07/05 10:09:05;;;;;;;;;;;;;;;24.43;81.76;96958.90;625026;227;64989;-70
2022/07/05 10:11:33;;;;;;;;;;;;;;;24.43;81.79;96950.05;625463;227;62797;-70
2022/07/05 10:14:02;;;;;;;;;;;;;;;24.43;82.14;96950.84;623372;227;63265;-70
2022/07/05 10:16:29;;;;;;;;;;;;;;;24.43;81.71;96955.42;623144;227;63812;-71
2022/07/05 10:18:57;;;;;;;;;;;;;;;24.43;81.58;96955.42;623210;227;66205;-71
2022/07/05 10:21:26;;;;;;;;;;;;;;;24.42;81.30;96951.94;623431;227;63074;-69
2022/07/05 10:23:55;;;;;;;;;;;;;;;24.44;81.43;96951.66;623336;227;65200;-70
2022/07/05 10:26:24;;;;;;;;;;;;;;;24.42;81.45;96949.26;623364;227;43296;-72
2022/07/05 10:28:53;;;;;;;;;;;;;;;24.42;81.31;96949.26;623391;227;65461;-71
2022/07/05 10:31:22;;;;;;;;;;;;;;;24.43;81.45;96945.47;623304;227;63860;-71
2022/07/05 10:33:50;;;;;;;;;;;;;;;24.43;81.56;96948.16;623430;227;65218;-70
2022/07/05 10:36:18;;;;;;;;;;;;;;;24.43;81.31;96948.16;623361;227;65509;-70
2022/07/05 10:38:46;;;;;;;;;;;;;;;24.43;81.13;96942.78;623316;227;65099;-70
2022/07/05 10:41:15;;;;;;;;;;;;;;;24.44;81.17;96933.66;623093;227;64879;-74
2022/07/05 10:43:43;;;;;;;;;;;;;;;24.45;81.34;96921.84;623379;227;65412;-71
2022/07/05 10:46:10;;;;;;;;;;;;;;;24.62;78.48;96915.09;623379;227;64970;-70
2022/07/05 10:48:38;;;;;;;;;;;;;;;24.57;80.41;96919.45;623219;227;65289;-70
2022/07/05 10:51:10;;;;;;;;;;;;;;;24.52;80.72;96916.85;623341;227;65583;-71
2022/07/05 10:53:39;;;;;;;;;;;;;;;24.50;81.00;96915.55;623387;227;64692;-71
2022/07/05 10:56:09;;;;;;;;;;;;;;;24.49;80.85;96922.83;623331;227;64846;-71
2022/07/05 10:58:38;;;;;;;;;;;;;;;24.49;80.76;96913.97;623295;227;65453;-72
2022/07/05 11:01:22;;;;;;;;;;;;;;;24.47;80.68;96914.28;623416;227;65689;-71
2022/07/05 11:03:51;;;;;;;;;;;;;;;24.47;80.78;96903.54;623337;227;63644;-72
2022/07/05 11:06:29;;;;;;;;;;;;;;;24.48;80.85;96904.33;623222;227;65510;-72
2022/07/05 11:09:04;;;;;;;;;;;;;;;24.50;81.59;96902.94;623337;227;65063;-71
2022/07/05 11:11:33;;;;;;;;;;;;;;;24.51;78.33;96912.59;623339;227;62862;-71
2022/07/05 11:14:06;;;;;;;;;;;;;;;24.51;80.57;96904.53;623285;227;63039;-71
2022/07/05 11:16:35;;;;;;;;;;;;;;;24.50;80.66;96891.37;619358;227;62892;-70
2022/07/05 11:19:10;;;;;;;;;;;;;;;24.49;81.00;96900.54;623353;227;62998;-73
2022/07/05 11:21:38;;;;;;;;;;;;;;;24.48;81.15;96897.06;624123;225;62868;-69
2022/07/05 11:24:23;;;;;;;;;;;;;;;24.59;80.51;96894.98;624295;225;63211;-69
2022/07/05 11:26:55;;;;;;;;;;;;;;;24.72;78.83;96901.48;623287;227;64848;-71
2022/07/05 11:29:44;;;;;;;;;;;;;;;24.79;78.72;96899.17;623325;227;63604;-71
2022/07/05 11:32:14;;;;;;;;;;;;;;;24.84;75.27;96904.45;623312;227;65203;-68
2022/07/05 11:34:43;;;;;;;;;;;;;;;24.75;77.73;96893.61;623048;227;63049;-69
2022/07/05 11:37:28;;;;;;;;;;;;;;;24.67;78.40;96891.61;623292;227;63000;-71
2022/07/05 11:40:07;;;;;;;;;;;;;;;24.63;79.60;96884.44;623224;227;67969;-72
2022/07/05 11:42:39;;;;;;;;;;;;;;;24.61;80.18;96881.23;623266;227;65122;-68
2022/07/05 11:45:07;;;;;;;;;;;;;;;24.58;80.55;96883.45;623401;227;62752;-70
2022/07/05 11:47:35;;;;;;;;;;;;;;;24.57;80.81;96876.47;623366;227;65301;-71
2022/07/05 11:50:03;;;;;;;;;;;;;;;24.56;81.07;96880.26;623355;227;65348;-72
2022/07/05 11:52:32;;;;;;;;;;;;;;;24.55;81.11;96875.98;623250;227;65742;-73
2022/07/05 11:55:00;;;;;;;;;;;;;;;24.55;81.32;96875.98;623416;227;66213;-72
2022/07/05 11:57:28;;;;;;;;;;;;;;;24.55;81.42;96867.93;623286;227;64862;-72
2022/07/05 11:59:55;;;;;;;;;;;;;;;24.56;81.45;96863.34;623254;227;65452;-72
2022/07/05 12:02:23;;;;;;;;;;;;;;;24.54;81.53;96860.16;623349;227;63855;-73
2022/07/05 12:04:52;;;;;;;;;;;;;;;24.54;81.73;96860.16;623300;227;64911;-73
2022/07/05 12:07:27;;;;;;;;;;;;;;;24.54;81.64;96852.09;623320;227;65486;-72
2022/07/05 12:12:43;;;;;;;;;;;;;;;24.54;81.90;96844.03;624211;227;65190;-73
2022/07/05 12:15:18;;;;;;;;;;;;;;;24.54;82.00;96855.57;625501;227;65979;-71
2022/07/05 12:17:46;;;;;;;;;;;;;;;24.54;81.97;96860.95;625409;227;63260;-73
2022/07/05 12:20:15;;;;;;;;;;;;;;;24.55;82.02;96864.42;625575;227;65181;-74
2022/07/05 12:22:43;;;;;;;;;;;;;;;24.53;82.04;96856.67;625506;227;65611;-73
2022/07/05 12:25:15;;;;;;;;;;;;;;;24.54;82.05;96854.78;625708;224;65258;-72
2022/07/05 12:27:44;;;;;;;;;;;;;;;24.54;81.97;96852.09;628369;224;62772;-73
2022/07/05 12:30:12;;;;;;;;;;;;;;;24.54;81.95;96849.41;625567;227;65577;-73
2022/07/05 12:32:56;;;;;;;;;;;;;;;24.54;81.92;96846.72;625491;227;65352;-72
2022/07/05 12:35:29;;;;;;;;;;;;;;;24.55;81.99;96842.93;625583;227;64870;-72
2022/07/05 12:37:58;;;;;;;;;;;;;;;24.54;81.95;96838.66;625360;226;65271;-71
2022/07/05 12:40:26;;;;;;;;;;;;;;;24.54;81.95;96834.08;625450;227;62964;-70
2022/07/05 12:43:03;;;;;;;;;;;;;;;24.54;82.00;96834.08;625485;227;64582;-72
2022/07/05 12:45:33;;;;;;;;;;;;;;;24.55;82.05;96841.06;625246;227;63522;-72
2022/07/05 12:48:01;;;;;;;;;;;;;;;24.54;82.00;96838.66;625536;227;62971;-70
2022/07/05 12:50:30;;;;;;;;;;;;;;;24.53;81.98;96837.87;625584;227;65114;-73
2022/07/05 12:58:01;;;;;;;;;;;;;;;24.55;82.06;96841.06;626742;227;65481;-71
2022/07/05 12:58:20;;;;;;;;;;;;;;;24.62;77.44;96835.28;626529;227;41923;-71
2022/07/05 13:00:47;;;;;;;;;;;;;;;24.61;81.10;96827.51;625511;227;65497;-71
2022/07/05 13:03:15;;;;;;;;;;;;;;;24.59;81.50;96827.82;625567;227;64961;-71
2022/07/05 13:05:43;;;;;;;;;;;;;;;24.58;81.87;96824.34;625586;227;64962;-72
2022/07/05 13:08:10;;;;;;;;;;;;;;;24.58;81.90;96815.47;625135;227;65074;-71
2022/07/05 13:10:39;;;;;;;;;;;;;;;24.58;81.56;96818.15;625526;227;62739;-72